Time;durP1;ratioP1;P1;durP2;ratioP2;P2;SDS_P1;SDS_P2;PMS_P1;PMS_P2;Temp;Humidity;BMP_temperature;BMP_pressure;BME280_temperature;BME280_humidity;BME280_pressure;Samples;Min_cycle;Max_cycle;Signal;HPM_P1;HPM_P2
2023/07/18 00:02:12;;;;;;;8.20;4.80;;;12.80;1.00;;;;;;5098491;28;20491;-57
2023/07/18 00:04:40;;;;;;;6.67;4.40;;;12.80;1.00;;;;;;5098251;28;20881;-58
2023/07/18 00:07:08;;;;;;;5.63;4.00;;;12.80;1.00;;;;;;5098238;28;20457;-57
2023/07/18 00:09:37;;;;;;;5.87;4.00;;;12.70;1.00;;;;;;5098561;28;20456;-57
2023/07/18 00:12:05;;;;;;;5.73;4.90;;;12.70;1.00;;;;;;5098319;28;20467;-57
2023/07/18 00:14:32;;;;;;;7.20;4.57;;;12.60;6.20;;;;;;5098084;28;20498;-58
2023/07/18 00:16:59;;;;;;;5.70;4.90;;;12.50;97.20;;;;;;5097893;28;20471;-58
2023/07/18 00:19:29;;;;;;;6.40;4.87;;;12.50;99.90;;;;;;5097957;28;20436;-58
2023/07/18 00:21:57;;;;;;;5.20;4.60;;;12.40;99.90;;;;;;5098230;28;20499;-58
2023/07/18 00:24:24;;;;;;;6.83;5.27;;;12.40;99.90;;;;;;5097657;28;20460;-58
2023/07/18 00:26:51;;;;;;;7.33;4.67;;;12.50;99.90;;;;;;5098340;28;20456;-58
2023/07/18 00:29:18;;;;;;;8.90;4.70;;;12.50;99.90;;;;;;5097003;28;20461;-57
2023/07/18 00:31:46;;;;;;;5.63;4.50;;;12.50;99.90;;;;;;5098137;28;20464;-58
2023/07/18 00:34:13;;;;;;;5.50;4.70;;;12.50;99.90;;;;;;5097693;28;20484;-58
2023/07/18 00:36:41;;;;;;;5.80;4.93;;;12.50;99.90;;;;;;5097633;28;20461;-58
2023/07/18 00:39:08;;;;;;;7.97;5.10;;;12.40;16.70;;;;;;5097423;28;20784;-58
2023/07/18 00:41:35;;;;;;;7.07;5.07;;;12.40;89.80;;;;;;5097679;28;20495;-58
2023/07/18 00:44:02;;;;;;;7.43;4.80;;;12.50;88.70;;;;;;5097779;28;20517;-58
2023/07/18 00:46:31;;;;;;;5.40;4.80;;;12.40;1.00;;;;;;5097175;28;20464;-58
2023/07/18 00:48:58;;;;;;;7.20;4.50;;;12.40;99.90;;;;;;5097286;28;20471;-58
2023/07/18 00:51:25;;;;;;;5.73;4.27;;;12.30;99.90;;;;;;5097577;28;20453;-58
2023/07/18 00:53:54;;;;;;;6.80;4.60;;;12.30;99.90;;;;;;5097698;28;20435;-58
2023/07/18 00:56:22;;;;;;;8.00;4.70;;;12.20;99.90;;;;;;5097692;28;20536;-58
2023/07/18 00:58:50;;;;;;;6.30;4.00;;;12.20;99.90;;;;;;5097371;28;20471;-58
2023/07/18 01:01:17;;;;;;;6.87;4.60;;;12.20;99.90;;;;;;5097456;28;20491;-58
2023/07/18 01:03:44;;;;;;;5.40;4.20;;;12.20;99.90;;;;;;5097477;28;20892;-57
2023/07/18 01:06:11;;;;;;;5.90;4.63;;;12.10;99.90;;;;;;5097451;28;20752;-58
2023/07/18 01:08:39;;;;;;;6.37;4.70;;;12.10;99.90;;;;;;5097156;28;20560;-57
2023/07/18 01:11:09;;;;;;;6.67;4.77;;;12.10;99.90;;;;;;5097081;28;20496;-57
2023/07/18 01:13:36;;;;;;;5.90;4.57;;;12.10;99.90;;;;;;5097775;28;20856;-58
2023/07/18 01:16:04;;;;;;;5.33;4.53;;;12.10;99.90;;;;;;5097416;28;20483;-58
2023/07/18 01:18:31;;;;;;;6.90;4.67;;;12.00;99.90;;;;;;5097327;28;20889;-58
2023/07/18 01:20:59;;;;;;;6.70;4.83;;;12.00;99.90;;;;;;5097319;28;20468;-58
2023/07/18 01:23:28;;;;;;;6.63;4.37;;;12.00;99.90;;;;;;5097347;28;20460;-58
2023/07/18 01:25:55;;;;;;;5.90;5.30;;;12.00;99.90;;;;;;5097754;28;20470;-57
2023/07/18 01:28:22;;;;;;;5.67;4.60;;;12.00;99.90;;;;;;5097185;28;20518;-58
2023/07/18 01:30:50;;;;;;;5.03;3.97;;;12.00;86.30;;;;;;5097443;28;20456;-58
2023/07/18 01:33:17;;;;;;;6.13;4.57;;;12.00;21.50;;;;;;5096727;28;20467;-55
2023/07/18 01:35:45;;;;;;;6.23;5.00;;;11.90;1.00;;;;;;5096954;28;20488;-58
2023/07/18 01:38:13;;;;;;;6.20;4.50;;;11.90;42.00;;;;;;5097227;28;20464;-57
2023/07/18 01:40:41;;;;;;;5.57;5.07;;;11.80;99.90;;;;;;5099856;28;20749;-57
2023/07/18 01:43:08;;;;;;;5.70;5.00;;;11.80;99.90;;;;;;5101365;28;20758;-58
2023/07/18 01:45:37;;;;;;;5.67;4.80;;;11.80;1.00;;;;;;5100624;28;20465;-58
2023/07/18 01:48:05;;;;;;;5.40;4.07;;;11.70;1.00;;;;;;5101393;28;20439;-58
2023/07/18 01:50:32;;;;;;;6.73;4.57;;;11.70;1.00;;;;;;5100543;28;20460;-58
2023/07/18 01:52:59;;;;;;;5.33;4.77;;;11.70;1.00;;;;;;5100673;28;20468;-58
2023/07/18 01:55:27;;;;;;;5.40;4.87;;;11.70;1.00;;;;;;5100754;28;20464;-58
2023/07/18 01:57:55;;;;;;;7.20;4.63;;;11.60;1.00;;;;;;5101174;28;20460;-57
2023/07/18 02:00:24;;;;;;;5.77;4.77;;;11.60;1.00;;;;;;5101271;28;20884;-57
2023/07/18 02:02:53;;;;;;;7.60;4.40;;;11.60;1.00;;;;;;5100678;28;20827;-58
2023/07/18 02:05:22;;;;;;;5.80;4.70;;;11.60;1.00;;;;;;5100657;28;20852;-58
2023/07/18 02:07:50;;;;;;;6.90;3.90;;;11.50;99.90;;;;;;5100911;28;20435;-58
2023/07/18 02:10:19;;;;;;;6.57;4.47;;;11.50;99.90;;;;;;5100999;28;20506;-58
2023/07/18 02:12:46;;;;;;;6.93;4.60;;;11.50;99.90;;;;;;5100435;28;20554;-58
2023/07/18 02:15:15;;;;;;;7.43;4.90;;;11.50;99.90;;;;;;5100460;28;20442;-58
2023/07/18 02:17:43;;;;;;;6.07;4.17;;;11.50;1.00;;;;;;5100660;28;20464;-57
2023/07/18 02:20:12;;;;;;;5.80;5.20;;;11.50;1.00;;;;;;5100604;28;20461;-58
2023/07/18 02:22:41;;;;;;;8.13;5.20;;;11.50;1.00;;;;;;5100410;28;20542;-57
2023/07/18 02:25:09;;;;;;;5.43;4.53;;;11.50;99.90;;;;;;5100629;28;20929;-58
2023/07/18 02:27:40;;;;;;;7.17;5.20;;;11.50;55.50;;;;;;5100452;28;20470;-57
2023/07/18 02:30:09;;;;;;;6.80;4.90;;;11.50;6.20;;;;;;5100717;28;20922;-58
2023/07/18 02:32:38;;;;;;;5.97;4.70;;;11.40;99.90;;;;;;5100298;28;20436;-57
2023/07/18 02:35:06;;;;;;;5.40;4.50;;;11.50;99.90;;;;;;5099586;28;20583;-57
2023/07/18 02:37:34;;;;;;;9.30;5.27;;;11.50;99.90;;;;;;5100287;28;20435;-58
2023/07/18 02:40:03;;;;;;;5.87;4.47;;;11.50;99.90;;;;;;5100432;28;20464;-57
2023/07/18 02:42:33;;;;;;;5.53;4.87;;;11.50;1.00;;;;;;5099669;28;20856;-57
2023/07/18 02:45:02;;;;;;;5.67;4.90;;;11.50;55.50;;;;;;5100021;28;20452;-58
2023/07/18 02:47:29;;;;;;;8.50;4.97;;;11.60;67.10;;;;;;5099827;28;20551;-57
2023/07/18 02:49:57;;;;;;;7.10;5.07;;;11.60;68.50;;;;;;5099997;28;20864;-58
2023/07/18 02:52:25;;;;;;;6.03;4.40;;;11.50;33.90;;;;;;5098978;28;20461;-57
2023/07/18 02:54:53;;;;;;;5.53;4.00;;;11.50;43.10;;;;;;5100162;28;20848;-57
2023/07/18 02:57:20;;;;;;;6.30;4.67;;;11.40;99.90;;;;;;5098975;28;20520;-57
2023/07/18 02:59:48;;;;;;;7.63;4.93;;;11.40;99.90;;;;;;5098083;28;20445;-56
2023/07/18 03:02:15;;;;;;;6.07;4.53;;;11.30;1.00;;;;;;5097484;28;20896;-57
2023/07/18 03:04:43;;;;;;;5.47;4.03;;;11.30;25.70;;;;;;5098055;28;20874;-58
2023/07/18 03:07:13;;;;;;;5.90;4.70;;;11.30;20.20;;;;;;5097727;28;20464;-58
2023/07/18 03:09:41;;;;;;;5.03;4.53;;;11.30;97.40;;;;;;5097815;28;20486;-58
2023/07/18 03:12:10;;;;;;;5.67;4.80;;;11.30;85.50;;;;;;5097808;28;20467;-57
2023/07/18 03:14:37;;;;;;;7.70;5.57;;;11.30;99.90;;;;;;5099036;28;20514;-58
2023/07/18 03:17:05;;;;;;;5.60;4.40;;;11.40;99.90;;;;;;5099129;28;20478;-57
2023/07/18 03:19:32;;;;;;;5.50;4.73;;;11.30;1.00;;;;;;5099280;28;20461;-57
2023/07/18 03:21:59;;;;;;;7.20;4.97;;;11.40;1.00;;;;;;5097453;28;20581;-57
2023/07/18 03:24:28;;;;;;;9.27;5.80;;;11.30;99.90;;;;;;5097161;28;20435;-58
2023/07/18 03:26:55;;;;;;;5.70;5.10;;;11.30;99.90;;;;;;5097143;28;20460;-58
2023/07/18 03:29:22;;;;;;;5.23;4.60;;;11.30;1.00;;;;;;5097606;28;20468;-57
2023/07/18 03:31:50;;;;;;;7.80;5.07;;;11.30;1.00;;;;;;5097054;28;20431;-57
2023/07/18 03:34:17;;;;;;;5.73;5.17;;;11.30;1.00;;;;;;5096829;28;21078;-58
2023/07/18 03:36:44;;;;;;;9.20;6.07;;;11.30;1.00;;;;;;5097167;28;20464;-58
2023/07/18 03:39:13;;;;;;;6.40;4.63;;;11.30;1.00;;;;;;5098776;28;20461;-58
2023/07/18 03:41:42;;;;;;;8.00;5.37;;;11.20;1.00;;;;;;5098700;28;21005;-55
2023/07/18 03:44:09;;;;;;;6.43;5.03;;;11.20;1.70;;;;;;5098422;28;20526;-58
2023/07/18 03:46:36;;;;;;;9.90;5.30;;;11.20;33.80;;;;;;5098538;28;20466;-57
2023/07/18 03:49:04;;;;;;;5.90;5.30;;;11.20;99.90;;;;;;5098628;28;20472;-58
2023/07/18 03:51:31;;;;;;;6.33;4.70;;;11.20;1.00;;;;;;5098461;28;20456;-57
2023/07/18 03:53:58;;;;;;;6.90;5.20;;;11.20;1.00;;;;;;5098963;28;20486;-56
2023/07/18 03:56:26;;;;;;;9.53;5.20;;;11.20;1.00;;;;;;5098571;28;20460;-55
2023/07/18 03:58:56;;;;;;;6.63;5.13;;;11.10;99.90;;;;;;5098082;28;20646;-57
2023/07/18 04:01:23;;;;;;;9.20;6.00;;;11.00;99.90;;;;;;5098175;28;20559;-56
2023/07/18 04:03:51;;;;;;;9.47;5.40;;;11.00;99.90;;;;;;5098426;28;20874;-57
2023/07/18 04:06:19;;;;;;;7.60;5.40;;;11.10;1.00;;;;;;5098618;28;20521;-58
2023/07/18 04:08:46;;;;;;;6.80;5.10;;;11.10;1.00;;;;;;5098353;28;20460;-57
2023/07/18 04:11:13;;;;;;;6.50;5.60;;;11.10;1.00;;;;;;5098342;28;20465;-56
2023/07/18 04:13:40;;;;;;;7.20;5.20;;;11.20;1.00;;;;;;5098364;28;20881;-57
2023/07/18 04:16:08;;;;;;;6.20;4.87;;;11.30;1.00;;;;;;5098296;28;20470;-57
2023/07/18 04:18:35;;;;;;;7.60;5.30;;;11.30;1.00;;;;;;5098072;28;20500;-57
2023/07/18 04:21:03;;;;;;;7.10;5.33;;;11.30;99.90;;;;;;5097945;28;20468;-56
2023/07/18 04:23:31;;;;;;;8.10;5.10;;;11.30;99.90;;;;;;5097924;28;20937;-57
2023/07/18 04:26:00;;;;;;;6.13;5.00;;;11.30;99.90;;;;;;5098362;28;20475;-57
2023/07/18 04:28:29;;;;;;;8.10;5.10;;;11.40;99.90;;;;;;5097593;28;20490;-58
2023/07/18 04:30:57;;;;;;;7.27;5.50;;;11.40;99.90;;;;;;5097612;28;20443;-57
2023/07/18 04:33:25;;;;;;;7.20;5.27;;;11.50;33.20;;;;;;5098273;28;20464;-58
2023/07/18 04:35:52;;;;;;;6.20;5.23;;;11.50;1.00;;;;;;5097709;28;20499;-58
2023/07/18 04:38:20;;;;;;;6.47;5.00;;;11.60;33.40;;;;;;5098241;28;20468;-58
2023/07/18 04:40:47;;;;;;;8.00;5.40;;;11.60;1.00;;;;;;5097776;28;20441;-57
2023/07/18 04:43:14;;;;;;;9.40;5.70;;;11.70;1.00;;;;;;5097073;28;20459;-57
2023/07/18 04:45:44;;;;;;;7.60;5.73;;;11.70;99.90;;;;;;5097608;28;20467;-58
2023/07/18 04:48:12;;;;;;;5.83;4.90;;;11.70;99.90;;;;;;5098001;28;20464;-56
2023/07/18 04:50:42;;;;;;;9.50;5.20;;;11.80;99.90;;;;;;5097147;28;20472;-57
2023/07/18 04:53:09;;;;;;;7.50;5.43;;;11.80;99.90;;;;;;5097161;28;20468;-57
2023/07/18 04:55:36;;;;;;;6.83;5.27;;;11.90;1.00;;;;;;5097809;28;20756;-57
2023/07/18 04:58:05;;;;;;;6.73;5.40;;;12.00;99.90;;;;;;5097739;28;20470;-58
2023/07/18 05:00:32;;;;;;;7.97;5.00;;;12.10;99.90;;;;;;5097330;28;20467;-57
2023/07/18 05:03:00;;;;;;;5.93;4.43;;;12.10;96.10;;;;;;5097318;28;20945;-58
2023/07/18 05:05:28;;;;;;;7.57;5.07;;;12.20;85.20;;;;;;5097292;28;20515;-55
2023/07/18 05:07:58;;;;;;;6.93;4.90;;;12.30;99.90;;;;;;5097584;28;20460;-58
2023/07/18 05:10:25;;;;;;;7.50;5.40;;;12.40;1.00;;;;;;5097312;28;20553;-57
2023/07/18 05:12:54;;;;;;;5.47;4.87;;;12.50;99.90;;;;;;5097234;28;20471;-57
2023/07/18 05:15:21;;;;;;;8.73;6.10;;;12.60;99.90;;;;;;5096866;28;20460;-57
2023/07/18 05:17:48;;;;;;;9.13;6.13;;;12.70;99.90;;;;;;5097481;28;20723;-57
2023/07/18 05:20:16;;;;;;;6.07;4.50;;;12.80;54.70;;;;;;5097591;28;20844;-54
2023/07/18 05:22:44;;;;;;;7.70;5.03;;;12.90;1.00;;;;;;5097276;28;20940;-56
2023/07/18 05:25:14;;;;;;;7.13;5.03;;;13.00;1.00;;;;;;5097306;28;20463;-58
2023/07/18 05:27:42;;;;;;;8.73;4.97;;;13.20;1.00;;;;;;5097343;28;20879;-59
2023/07/18 05:30:13;;;;;;;7.93;4.60;;;13.30;1.00;;;;;;5097220;28;20460;-58
2023/07/18 05:32:40;;;;;;;6.93;4.43;;;13.40;1.00;;;;;;5096776;28;20453;-59
2023/07/18 05:35:10;;;;;;;9.80;5.03;;;13.50;99.90;;;;;;5097134;28;20905;-59
2023/07/18 05:37:37;;;;;;;5.83;4.40;;;13.70;99.90;;;;;;5097469;28;20468;-58
2023/07/18 05:40:06;;;;;;;5.80;5.20;;;13.90;99.90;;;;;;5097240;28;20478;-58
2023/07/18 05:42:34;;;;;;;5.43;4.30;;;14.00;99.90;;;;;;5097019;28;20493;-59
2023/07/18 05:45:01;;;;;;;8.57;4.63;;;14.20;99.90;;;;;;5096866;28;20464;-58
2023/07/18 05:47:28;;;;;;;7.80;4.57;;;14.30;99.90;;;;;;5096916;28;20460;-58
2023/07/18 05:49:56;;;;;;;8.43;5.10;;;14.50;99.90;;;;;;5097205;28;20717;-59
2023/07/18 05:52:23;;;;;;;6.80;5.07;;;14.60;84.60;;;;;;5097360;28;20458;-58
2023/07/18 05:54:50;;;;;;;6.90;4.10;;;14.80;10.20;;;;;;5096618;28;20465;-58
2023/07/18 05:57:17;;;;;;;5.30;4.73;;;15.00;21.60;;;;;;5096815;28;20464;-58
2023/07/18 05:59:46;;;;;;;5.80;4.80;;;15.20;1.00;;;;;;5097204;28;20756;-58
2023/07/18 06:02:13;;;;;;;6.43;4.37;;;15.40;1.00;;;;;;5096432;28;20481;-58
2023/07/18 06:04:40;;;;;;;9.20;4.10;;;15.60;1.00;;;;;;5095945;28;20463;-58
2023/07/18 06:07:07;;;;;;;6.50;4.50;;;15.80;1.00;;;;;;5096038;28;20445;-59
2023/07/18 06:09:34;;;;;;;6.00;4.50;;;16.00;1.00;;;;;;5096034;28;20757;-59
2023/07/18 06:12:02;;;;;;;5.07;3.90;;;16.20;1.00;;;;;;5096589;28;20765;-59
2023/07/18 06:14:30;;;;;;;6.80;4.17;;;16.40;1.00;;;;;;5096575;28;20442;-59
2023/07/18 06:16:58;;;;;;;5.73;3.80;;;16.60;1.00;;;;;;5096457;28;20464;-58
2023/07/18 06:19:26;;;;;;;5.70;3.87;;;16.80;1.00;;;;;;5096917;28;20464;-58
2023/07/18 06:21:53;;;;;;;4.97;3.80;;;17.00;1.00;;;;;;5096660;28;20460;-59
2023/07/18 06:24:20;;;;;;;7.17;4.20;;;17.10;99.90;;;;;;5096810;28;20503;-59
2023/07/18 06:26:49;;;;;;;5.03;3.87;;;17.40;99.90;;;;;;5097682;28;20435;-59
2023/07/18 06:29:17;;;;;;;5.27;4.77;;;17.50;99.90;;;;;;5100089;28;20460;-60
2023/07/18 06:31:45;;;;;;;4.60;3.60;;;17.70;99.90;;;;;;5100491;28;20460;-59
2023/07/18 06:34:13;;;;;;;4.50;3.93;;;18.00;99.90;;;;;;5100339;28;20858;-59
2023/07/18 06:36:40;;;;;;;5.37;3.70;;;18.10;99.90;;;;;;5100212;28;20460;-59
2023/07/18 06:39:08;;;;;;;6.03;4.00;;;18.30;99.90;;;;;;5100000;28;20456;-60
2023/07/18 06:41:35;;;;;;;5.03;3.80;;;18.40;99.90;;;;;;5100107;28;20456;-60
2023/07/18 06:44:04;;;;;;;6.27;3.83;;;18.60;99.90;;;;;;5099921;28;20467;-60
2023/07/18 06:46:31;;;;;;;4.83;3.50;;;18.80;99.90;;;;;;5099531;28;20570;-61
2023/07/18 06:48:59;;;;;;;8.90;3.80;;;19.00;99.90;;;;;;5100096;28;20482;-60
2023/07/18 06:51:28;;;;;;;4.33;3.40;;;19.10;99.90;;;;;;5100075;28;20471;-61
2023/07/18 06:53:55;;;;;;;7.60;3.90;;;19.40;99.90;;;;;;5100138;28;20467;-61
2023/07/18 06:56:22;;;;;;;5.33;3.80;;;19.60;99.90;;;;;;5100202;28;20460;-61
2023/07/18 06:58:50;;;;;;;6.70;4.50;;;19.80;99.90;;;;;;5099435;28;20460;-60
2023/07/18 07:01:17;;;;;;;4.40;3.97;;;20.00;99.90;;;;;;5099209;28;20464;-61
2023/07/18 07:03:44;;;;;;;5.40;3.20;;;20.20;99.90;;;;;;5099888;28;20530;-61
2023/07/18 07:06:12;;;;;;;4.27;3.37;;;20.40;99.90;;;;;;5099994;28;20499;-61
2023/07/18 07:08:41;;;;;;;6.50;3.60;;;20.60;99.90;;;;;;5099181;28;20467;-61
2023/07/18 07:11:09;;;;;;;4.63;3.10;;;20.80;99.90;;;;;;5099548;28;20464;-62
2023/07/18 07:13:38;;;;;;;11.10;3.33;;;21.00;99.90;;;;;;5099595;28;20525;-62
2023/07/18 07:16:05;;;;;;;6.10;2.90;;;21.10;99.90;;;;;;5100019;28;20483;-62
2023/07/18 07:18:32;;;;;;;4.47;3.23;;;21.30;99.90;;;;;;5099004;28;20464;-62
2023/07/18 07:21:00;;;;;;;4.00;3.30;;;21.40;99.90;;;;;;5099281;28;20461;-62
2023/07/18 07:23:28;;;;;;;5.50;3.70;;;21.30;99.90;;;;;;5099536;28;20495;-62
2023/07/18 07:25:56;;;;;;;6.63;3.40;;;21.60;99.90;;;;;;5099304;28;20464;-63
2023/07/18 07:28:24;;;;;;;3.10;2.80;;;21.70;99.90;;;;;;5099604;28;20467;-62
2023/07/18 07:30:51;;;;;;;4.30;3.17;;;21.80;99.90;;;;;;5096166;28;20938;-62
2023/07/18 07:33:18;;;;;;;3.70;2.90;;;21.90;99.90;;;;;;5099469;28;20437;-62
2023/07/18 07:35:46;;;;;;;3.23;2.90;;;22.20;99.90;;;;;;5099194;28;20781;-62
2023/07/18 07:38:13;;;;;;;6.07;3.27;;;22.50;99.90;;;;;;5098551;28;20460;-62
2023/07/18 07:40:40;;;;;;;3.17;2.73;;;22.60;99.90;;;;;;5098535;28;20482;-62
2023/07/18 07:43:09;;;;;;;3.53;3.10;;;22.70;99.90;;;;;;5098529;28;20499;-64
2023/07/18 07:45:36;;;;;;;3.73;2.87;;;22.80;99.90;;;;;;5098785;28;20762;-62
2023/07/18 07:48:03;;;;;;;4.30;3.00;;;23.00;99.90;;;;;;5098320;28;20567;-62
2023/07/18 07:50:33;;;;;;;5.23;2.87;;;23.10;99.90;;;;;;5098282;28;20460;-62
2023/07/18 07:53:01;;;;;;;3.80;2.83;;;23.30;99.90;;;;;;5098778;28;20795;-62
2023/07/18 07:55:28;;;;;;;5.73;3.13;;;23.50;99.90;;;;;;5098696;28;20907;-62
2023/07/18 07:57:55;;;;;;;5.13;3.60;;;23.60;99.90;;;;;;5098687;28;20461;-64
2023/07/18 08:00:24;;;;;;;5.33;3.60;;;23.70;99.90;;;;;;5098664;28;20456;-62
2023/07/18 08:02:51;;;;;;;4.20;2.30;;;23.70;99.90;;;;;;5096936;28;20803;-63
2023/07/18 08:05:18;;;;;;;4.90;3.20;;;23.70;99.90;;;;;;5098451;28;20476;-62
2023/07/18 08:07:45;;;;;;;3.90;3.10;;;24.00;99.90;;;;;;5096792;28;20476;-63
2023/07/18 08:10:13;;;;;;;5.17;3.40;;;24.20;99.90;;;;;;5098398;28;20899;-62
2023/07/18 08:12:40;;;;;;;3.93;3.10;;;24.10;99.90;;;;;;5098354;28;20491;-64
2023/07/18 08:15:09;;;;;;;5.00;2.43;;;24.40;99.90;;;;;;5097962;28;20439;-64
2023/07/18 08:17:37;;;;;;;5.67;2.83;;;24.80;99.90;;;;;;5096167;28;20472;-63
2023/07/18 08:20:07;;;;;;;3.60;2.77;;;25.30;99.90;;;;;;5096769;28;20779;-64
2023/07/18 08:22:35;;;;;;;4.20;3.27;;;25.60;99.90;;;;;;5075850;28;20453;-64
2023/07/18 08:25:03;;;;;;;3.50;3.20;;;25.00;99.90;;;;;;5094934;28;20443;-63
2023/07/18 08:27:31;;;;;;;3.00;2.60;;;25.00;99.90;;;;;;5097742;28;20456;-64
2023/07/18 08:29:58;;;;;;;4.40;3.00;;;25.50;99.90;;;;;;5097813;28;20756;-63
2023/07/18 08:32:25;;;;;;;3.43;2.67;;;25.80;99.90;;;;;;5097665;28;20468;-63
2023/07/18 08:34:54;;;;;;;3.87;2.83;;;26.00;99.90;;;;;;5097236;28;20591;-63
2023/07/18 08:37:21;;;;;;;3.60;2.80;;;25.90;99.90;;;;;;5097906;28;20489;-64
2023/07/18 08:39:48;;;;;;;4.70;2.83;;;26.00;99.90;;;;;;5098152;28;20456;-63
2023/07/18 08:42:17;;;;;;;3.40;2.30;;;25.40;99.90;;;;;;5097794;28;20461;-63
2023/07/18 08:44:44;;;;;;;4.90;2.77;;;24.90;99.90;;;;;;5097744;28;20929;-63
2023/07/18 08:47:13;;;;;;;3.47;2.77;;;25.00;99.90;;;;;;5097799;28;20464;-65
2023/07/18 08:49:41;;;;;;;3.07;2.80;;;25.60;99.90;;;;;;5096962;28;20461;-64
2023/07/18 08:52:10;;;;;;;5.47;3.37;;;25.60;99.90;;;;;;5097645;28;20498;-64
2023/07/18 08:54:37;;;;;;;3.17;2.60;;;26.00;99.90;;;;;;5097103;28;20456;-63
2023/07/18 08:57:06;;;;;;;2.80;2.30;;;26.10;99.90;;;;;;5097328;28;20452;-65
2023/07/18 08:59:34;;;;;;;2.63;2.43;;;26.30;99.90;;;;;;5097567;28;20801;-66
2023/07/18 09:02:01;;;;;;;3.10;2.77;;;26.60;99.90;;;;;;5097603;28;20461;-65
2023/07/18 09:04:28;;;;;;;3.10;2.67;;;25.70;99.90;;;;;;5097186;28;20535;-66
2023/07/18 09:06:58;;;;;;;4.43;3.00;;;25.30;99.90;;;;;;5097708;28;20759;-66
2023/07/18 09:09:27;;;;;;;2.83;2.40;;;25.20;99.90;;;;;;5097441;28;20558;-64
2023/07/18 09:11:56;;;;;;;3.60;2.90;;;25.30;99.90;;;;;;5097349;28;20550;-65
2023/07/18 09:14:25;;;;;;;3.70;2.90;;;25.10;99.90;;;;;;5097659;28;20484;-66
2023/07/18 09:16:54;;;;;;;3.33;3.03;;;24.80;99.90;;;;;;5096510;28;20581;-65
2023/07/18 09:19:21;;;;;;;3.80;2.77;;;24.80;99.90;;;;;;5096629;28;20442;-64
2023/07/18 09:21:48;;;;;;;3.67;3.07;;;25.00;99.90;;;;;;5097423;28;20463;-63
2023/07/18 09:24:15;;;;;;;3.43;2.90;;;25.30;99.90;;;;;;5097303;28;20913;-66
2023/07/18 09:26:48;;;;;;;3.97;3.07;;;25.50;99.90;;;;;;5097128;28;20563;-66
2023/07/18 09:29:15;;;;;;;5.10;3.33;;;25.50;99.90;;;;;;5097487;28;20435;-65
2023/07/18 09:31:45;;;;;;;3.97;3.20;;;25.60;99.90;;;;;;5097751;28;20452;-65
2023/07/18 09:34:13;;;;;;;3.33;2.80;;;25.60;99.90;;;;;;5096931;28;20487;-65
2023/07/18 09:36:40;;;;;;;4.30;3.13;;;25.30;99.90;;;;;;5096953;28;20744;-66
2023/07/18 09:39:09;;;;;;;5.00;3.33;;;25.20;99.90;;;;;;5096699;28;20555;-67
2023/07/18 09:41:38;;;;;;;2.97;2.63;;;25.50;99.90;;;;;;5097119;28;20471;-65
2023/07/18 09:44:08;;;;;;;4.03;3.37;;;25.60;99.90;;;;;;5097530;28;20488;-65
2023/07/18 09:46:35;;;;;;;3.47;2.90;;;25.60;99.90;;;;;;5097059;28;20464;-68
2023/07/18 09:49:02;;;;;;;3.90;3.37;;;25.90;99.90;;;;;;5097143;28;20474;-66
2023/07/18 09:51:33;;;;;;;3.30;3.00;;;25.60;99.90;;;;;;5097054;28;20889;-65
2023/07/18 09:54:01;;;;;;;3.80;3.10;;;25.10;99.90;;;;;;5097386;28;20463;-65
2023/07/18 09:56:32;;;;;;;4.80;3.47;;;25.00;99.90;;;;;;5096723;28;20468;-64
2023/07/18 09:59:04;;;;;;;7.40;3.03;;;25.00;99.90;;;;;;5096878;28;20828;-65
2023/07/18 10:01:33;;;;;;;5.30;3.60;;;24.90;99.90;;;;;;5099540;28;20464;-64
2023/07/18 10:04:00;;;;;;;5.17;3.53;;;25.30;99.90;;;;;;5101014;28;20511;-64
2023/07/18 10:06:28;;;;;;;6.37;3.30;;;26.30;99.90;;;;;;5098916;28;20466;-68
2023/07/18 10:08:56;;;;;;;4.13;3.40;;;26.90;99.90;;;;;;5100123;28;20460;-66
2023/07/18 10:11:23;;;;;;;6.40;3.60;;;27.10;99.90;;;;;;5100166;28;20814;-65
2023/07/18 10:14:12;;;;;;;6.37;3.17;;;27.20;99.90;;;;;;5101039;28;20464;-65
2023/07/18 10:16:42;;;;;;;4.93;3.67;;;27.60;99.90;;;;;;5100114;28;20472;-66
2023/07/18 10:19:22;;;;;;;5.63;3.90;;;27.90;99.90;;;;;;5100173;28;20460;-65
2023/07/18 10:21:53;;;;;;;6.53;3.83;;;27.70;99.90;;;;;;5100139;28;20464;-64
2023/07/18 10:24:31;;;;;;;3.37;3.07;;;27.00;99.90;;;;;;5100923;28;20484;-65
2023/07/18 10:27:01;;;;;;;3.73;3.43;;;26.40;99.90;;;;;;5100537;28;20488;-64
2023/07/18 10:29:32;;;;;;;4.03;3.37;;;25.90;99.90;;;;;;5100708;28;20467;-65
2023/07/18 10:32:02;;;;;;;4.43;3.20;;;25.50;99.90;;;;;;5100656;28;20814;-66
2023/07/18 10:34:29;;;;;;;5.13;3.30;;;25.40;99.90;;;;;;5099942;28;20487;-64
2023/07/18 10:36:58;;;;;;;3.90;3.23;;;25.60;99.90;;;;;;5100128;28;20464;-65
2023/07/18 10:39:40;;;;;;;3.53;2.80;;;25.50;99.90;;;;;;5100678;28;20541;-63
2023/07/18 10:42:09;;;;;;;4.37;3.50;;;25.10;99.90;;;;;;5100417;28;20467;-65
2023/07/18 10:44:37;;;;;;;5.13;3.70;;;25.00;99.90;;;;;;5099341;28;20488;-63
2023/07/18 10:47:18;;;;;;;4.80;3.37;;;24.80;99.90;;;;;;5099889;28;20472;-63
2023/07/18 10:49:47;;;;;;;5.10;3.90;;;24.70;99.90;;;;;;5096244;28;20555;-64
2023/07/18 10:52:14;;;;;;;3.97;3.37;;;24.80;99.90;;;;;;5100281;28;20517;-63
2023/07/18 10:54:45;;;;;;;3.50;2.97;;;25.00;99.90;;;;;;5099498;28;20460;-65
2023/07/18 10:57:13;;;;;;;5.43;3.57;;;25.10;99.90;;;;;;5099669;28;20516;-62
2023/07/18 10:59:44;;;;;;;3.87;3.47;;;25.50;99.90;;;;;;5098537;28;20536;-63
2023/07/18 11:02:13;;;;;;;3.57;3.27;;;25.00;99.90;;;;;;5095370;28;20472;-62
2023/07/18 11:04:40;;;;;;;4.33;3.63;;;25.00;99.90;;;;;;5099537;28;20492;-64
2023/07/18 11:07:10;;;;;;;4.47;3.40;;;25.10;99.90;;;;;;5099475;28;20523;-65
2023/07/18 11:09:37;;;;;;;4.63;4.10;;;25.10;99.90;;;;;;5099828;28;20464;-64
2023/07/18 11:12:06;;;;;;;6.37;4.03;;;25.20;99.90;;;;;;5098786;28;20509;-64
2023/07/18 11:14:39;;;;;;;4.97;4.37;;;25.60;99.90;;;;;;5099356;28;20742;-63
2023/07/18 11:17:13;;;;;;;7.47;4.40;;;25.50;99.90;;;;;;5099236;28;20471;-63
2023/07/18 11:19:41;;;;;;;6.77;4.40;;;25.90;99.90;;;;;;5099484;28;20468;-63
2023/07/18 11:22:10;;;;;;;5.63;3.60;;;26.30;99.90;;;;;;5098663;28;20465;-63
2023/07/18 11:24:37;;;;;;;6.13;4.60;;;26.60;99.90;;;;;;5099299;28;20554;-62
2023/07/18 11:27:18;;;;;;;5.37;4.10;;;26.50;99.90;;;;;;5099491;28;20461;-62
2023/07/18 11:30:09;;;;;;;6.50;4.70;;;26.30;99.90;;;;;;5099546;28;20719;-62
2023/07/18 11:32:39;;;;;;;4.30;3.37;;;25.80;99.90;;;;;;5093537;28;20562;-62
2023/07/18 11:35:10;;;;;;;5.17;4.37;;;25.50;99.90;;;;;;5099138;28;20968;-62
2023/07/18 11:37:41;;;;;;;6.80;3.50;;;25.00;99.90;;;;;;5099216;28;20551;-63
2023/07/18 11:40:09;;;;;;;4.03;3.73;;;24.60;99.90;;;;;;5099117;28;20881;-62
2023/07/18 11:42:48;;;;;;;5.40;4.10;;;24.80;99.90;;;;;;5099341;28;20464;-62
2023/07/18 11:45:17;;;;;;;4.90;4.10;;;25.00;99.90;;;;;;5098570;28;20502;-61
2023/07/18 11:47:49;;;;;;;4.80;4.00;;;25.20;99.90;;;;;;5098942;28;20873;-61
2023/07/18 11:50:16;;;;;;;6.80;4.53;;;25.50;99.90;;;;;;5099247;28;20869;-62
2023/07/18 11:52:47;;;;;;;5.23;4.40;;;26.30;99.90;;;;;;5098564;28;20460;-62
2023/07/18 11:55:15;;;;;;;4.30;3.47;;;26.40;99.90;;;;;;5098468;28;20935;-61
2023/07/18 11:57:42;;;;;;;4.00;3.60;;;26.30;99.90;;;;;;5098860;28;20468;-61
2023/07/18 12:00:12;;;;;;;6.00;4.27;;;26.10;99.90;;;;;;5098950;28;20460;-61
2023/07/18 12:02:39;;;;;;;5.83;3.10;;;25.80;99.90;;;;;;5098626;28;20491;-60
2023/07/18 12:05:08;;;;;;;4.60;3.83;;;25.50;99.90;;;;;;5098234;28;20498;-60
2023/07/18 12:07:36;;;;;;;7.97;4.53;;;25.50;99.90;;;;;;5098638;28;20581;-61
2023/07/18 12:10:06;;;;;;;3.93;3.40;;;25.60;99.90;;;;;;5098647;28;20456;-59
2023/07/18 12:12:34;;;;;;;5.70;3.77;;;26.10;99.90;;;;;;5097834;28;20551;-60
2023/07/18 12:15:01;;;;;;;5.33;3.87;;;26.30;99.90;;;;;;5098255;28;20456;-61
2023/07/18 12:17:28;;;;;;;5.53;3.83;;;27.40;99.90;;;;;;5098153;28;20456;-61
2023/07/18 12:19:57;;;;;;;5.00;3.63;;;28.00;99.90;;;;;;5097853;28;20525;-61
2023/07/18 12:22:26;;;;;;;4.90;3.40;;;28.70;99.90;;;;;;5098603;28;20876;-61
2023/07/18 12:24:53;;;;;;;5.90;3.97;;;29.10;99.90;;;;;;5097931;28;20491;-62
2023/07/18 12:27:20;;;;;;;4.53;3.97;;;29.40;99.90;;;;;;5098377;28;20463;-61
2023/07/18 12:29:48;;;;;;;5.27;3.70;;;28.70;99.90;;;;;;5098526;28;20890;-61
2023/07/18 12:32:16;;;;;;;5.30;3.80;;;28.30;99.90;;;;;;5098111;28;20747;-62
2023/07/18 12:34:43;;;;;;;4.50;4.10;;;27.40;99.90;;;;;;5097761;28;20530;-62
2023/07/18 12:37:10;;;;;;;3.77;3.30;;;27.10;99.90;;;;;;5097984;28;20480;-62
2023/07/18 12:39:39;;;;;;;7.10;3.83;;;26.90;99.90;;;;;;5097065;28;20775;-62
2023/07/18 12:42:06;;;;;;;4.20;3.57;;;26.70;99.90;;;;;;5096999;28;20460;-61
2023/07/18 12:44:41;;;;;;;4.40;4.00;;;27.20;99.90;;;;;;5096784;28;20546;-61
2023/07/18 12:47:09;;;;;;;5.17;3.80;;;28.00;99.90;;;;;;5096965;28;20492;-61
2023/07/18 12:49:39;;;;;;;7.33;4.00;;;27.90;99.90;;;;;;5096849;28;20881;-59
2023/07/18 12:52:07;;;;;;;4.17;3.73;;;28.20;99.90;;;;;;5097862;28;20467;-60
2023/07/18 12:54:34;;;;;;;5.57;3.80;;;28.60;99.90;;;;;;5097119;28;20463;-59